sensor_id;sensor_type;location;lat;lon;timestamp;pressure;altitude;pressure_sealevel;temperature;humidity
9139;BME280;4604;48.616;9.548;2024-01-27T00:01:50;98572.22;;;2.10;100.00
9139;BME280;4604;48.616;9.548;2024-01-27T00:04:18;98570.47;;;2.10;100.00
9139;BME280;4604;48.616;9.548;2024-01-27T00:06:44;98573.94;;;2.09;100.00
9139;BME280;4604;48.616;9.548;2024-01-27T00:09:11;98579.94;;;2.13;100.00
9139;BME280;4604;48.616;9.548;2024-01-27T00:11:37;98584.44;;;2.08;100.00
9139;BME280;4604;48.616;9.548;2024-01-27T00:14:04;98581.94;;;2.03;100.00
9139;BME280;4604;48.616;9.548;2024-01-27T00:16:30;98590.84;;;1.96;100.00
9139;BME280;4604;48.616;9.548;2024-01-27T00:18:57;98594.50;;;1.90;100.00
9139;BME280;4604;48.616;9.548;2024-01-27T00:21:25;98594.53;;;1.89;100.00
9139;BME280;4604;48.616;9.548;2024-01-27T00:23:51;98595.44;;;1.88;100.00
9139;BME280;4604;48.616;9.548;2024-01-27T00:26:18;98599.88;;;1.83;100.00
9139;BME280;4604;48.616;9.548;2024-01-27T00:28:45;98599.09;;;1.81;100.00
9139;BME280;4604;48.616;9.548;2024-01-27T00:31:11;98599.94;;;1.81;100.00
9139;BME280;4604;48.616;9.548;2024-01-27T00:33:38;98604.34;;;1.79;100.00
9139;BME280;4604;48.616;9.548;2024-01-27T00:36:05;98597.63;;;1.70;100.00
9139;BME280;4604;48.616;9.548;2024-01-27T00:38:33;98606.22;;;1.74;100.00
9139;BME280;4604;48.616;9.548;2024-01-27T00:40:59;98618.50;;;1.69;100.00
9139;BME280;4604;48.616;9.548;2024-01-27T00:43:26;98609.88;;;1.67;100.00
9139;BME280;4604;48.616;9.548;2024-01-27T00:45:53;98613.34;;;1.67;100.00
9139;BME280;4604;48.616;9.548;2024-01-27T00:48:19;98611.59;;;1.68;100.00
9139;BME280;4604;48.616;9.548;2024-01-27T00:50:46;98609.88;;;1.67;100.00
9139;BME280;4604;48.616;9.548;2024-01-27T00:53:12;98601.13;;;1.69;100.00
9139;BME280;4604;48.616;9.548;2024-01-27T00:55:40;98612.47;;;1.68;100.00
9139;BME280;4604;48.616;9.548;2024-01-27T00:58:07;98609.06;;;1.65;100.00
9139;BME280;4604;48.616;9.548;2024-01-27T01:00:34;98621.28;;;1.63;100.00
9139;BME280;4604;48.616;9.548;2024-01-27T01:03:00;98617.91;;;1.59;100.00
9139;BME280;4604;48.616;9.548;2024-01-27T01:05:27;98619.78;;;1.54;100.00
9139;BME280;4604;48.616;9.548;2024-01-27T01:07:53;98617.25;;;1.51;100.00
9139;BME280;4604;48.616;9.548;2024-01-27T01:10:20;98617.34;;;1.48;100.00
9139;BME280;4604;48.616;9.548;2024-01-27T01:12:48;98613.03;;;1.47;100.00
9139;BME280;4604;48.616;9.548;2024-01-27T01:15:15;98616.50;;;1.46;100.00
9139;BME280;4604;48.616;9.548;2024-01-27T01:17:41;98620.88;;;1.45;100.00
9139;BME280;4604;48.616;9.548;2024-01-27T01:20:08;98611.53;;;1.38;100.00
9139;BME280;4604;48.616;9.548;2024-01-27T01:22:35;98628.69;;;1.45;100.00
9139;BME280;4604;48.616;9.548;2024-01-27T01:25:02;98627.91;;;1.42;100.00
9139;BME280;4604;48.616;9.548;2024-01-27T01:27:28;98629.63;;;1.41;100.00
9139;BME280;4604;48.616;9.548;2024-01-27T01:29:56;98631.56;;;1.35;100.00
9139;BME280;4604;48.616;9.548;2024-01-27T01:32:23;98631.50;;;1.36;100.00
9139;BME280;4604;48.616;9.548;2024-01-27T01:34:49;98628.13;;;1.34;100.00
9139;BME280;4604;48.616;9.548;2024-01-27T01:37:16;98632.44;;;1.34;100.00
9139;BME280;4604;48.616;9.548;2024-01-27T01:39:42;98631.81;;;1.25;100.00
9139;BME280;4604;48.616;9.548;2024-01-27T01:42:09;98632.56;;;1.29;100.00
9139;BME280;4604;48.616;9.548;2024-01-27T01:44:35;98636.84;;;1.32;100.00
9139;BME280;4604;48.616;9.548;2024-01-27T01:47:04;98631.59;;;1.33;100.00
9139;BME280;4604;48.616;9.548;2024-01-27T01:49:31;98629.84;;;1.34;100.00
9139;BME280;4604;48.616;9.548;2024-01-27T01:51:57;98625.56;;;1.33;100.00
9139;BME280;4604;48.616;9.548;2024-01-27T01:54:24;98626.50;;;1.30;100.00
9139;BME280;4604;48.616;9.548;2024-01-27T01:56:53;98630.97;;;1.23;100.00
9139;BME280;4604;48.616;9.548;2024-01-27T01:59:20;98613.06;;;1.13;100.00
9139;BME280;4604;48.616;9.548;2024-01-27T02:01:47;98624.94;;;1.23;100.00
9139;BME280;4604;48.616;9.548;2024-01-27T02:04:14;98629.13;;;1.28;100.00
9139;BME280;4604;48.616;9.548;2024-01-27T02:06:41;98626.56;;;1.27;100.00
9139;BME280;4604;48.616;9.548;2024-01-27T02:09:08;98636.81;;;1.33;100.00
9139;BME280;4604;48.616;9.548;2024-01-27T02:11:35;98644.53;;;1.36;100.00
9139;BME280;4604;48.616;9.548;2024-01-27T02:14:02;98644.28;;;1.45;100.00
9139;BME280;4604;48.616;9.548;2024-01-27T02:16:28;98654.53;;;1.52;100.00
9139;BME280;4604;48.616;9.548;2024-01-27T02:18:55;98654.34;;;1.59;100.00
9139;BME280;4604;48.616;9.548;2024-01-27T02:21:23;98662.75;;;1.69;100.00
9139;BME280;4604;48.616;9.548;2024-01-27T02:23:49;98667.88;;;1.72;100.00
9139;BME280;4604;48.616;9.548;2024-01-27T02:26:17;98674.53;;;1.82;100.00
9139;BME280;4604;48.616;9.548;2024-01-27T02:28:44;98677.00;;;1.87;100.00
9139;BME280;4604;48.616;9.548;2024-01-27T02:31:10;98678.59;;;1.92;100.00
9139;BME280;4604;48.616;9.548;2024-01-27T02:33:37;98682.00;;;1.95;100.00
9139;BME280;4604;48.616;9.548;2024-01-27T02:36:04;98694.06;;;1.99;100.00
9139;BME280;4604;48.616;9.548;2024-01-27T02:38:30;98698.22;;;2.04;100.00
9139;BME280;4604;48.616;9.548;2024-01-27T02:40:57;98699.00;;;2.08;100.00
9139;BME280;4604;48.616;9.548;2024-01-27T02:43:25;98689.41;;;2.10;100.00
9139;BME280;4604;48.616;9.548;2024-01-27T02:45:51;98694.41;;;2.18;100.00
9139;BME280;4604;48.616;9.548;2024-01-27T02:48:18;98698.66;;;2.20;100.00
9139;BME280;4604;48.616;9.548;2024-01-27T02:50:44;98700.25;;;2.24;100.00
9139;BME280;4604;48.616;9.548;2024-01-27T02:53:11;98701.03;;;2.28;100.00
9139;BME280;4604;48.616;9.548;2024-01-27T02:55:37;98702.72;;;2.30;100.00
9139;BME280;4604;48.616;9.548;2024-01-27T02:58:04;98689.91;;;2.23;100.00
9139;BME280;4604;48.616;9.548;2024-01-27T03:00:32;98700.09;;;2.30;100.00
9139;BME280;4604;48.616;9.548;2024-01-27T03:02:59;98706.00;;;2.37;100.00
9139;BME280;4604;48.616;9.548;2024-01-27T03:05:25;98715.47;;;2.40;100.00
9139;BME280;4604;48.616;9.548;2024-01-27T03:07:52;98712.03;;;2.39;100.00
9139;BME280;4604;48.616;9.548;2024-01-27T03:10:18;98708.38;;;2.45;100.00
9139;BME280;4604;48.616;9.548;2024-01-27T03:12:45;98710.84;;;2.49;100.00
9139;BME280;4604;48.616;9.548;2024-01-27T03:15:12;98705.69;;;2.48;100.00
9139;BME280;4604;48.616;9.548;2024-01-27T03:17:39;98716.00;;;2.51;100.00
9139;BME280;4604;48.616;9.548;2024-01-27T03:20:07;98709.84;;;2.53;100.00
9139;BME280;4604;48.616;9.548;2024-01-27T03:22:34;98711.44;;;2.59;100.00
9139;BME280;4604;48.616;9.548;2024-01-27T03:25:01;98712.28;;;2.60;100.00
9139;BME280;4604;48.616;9.548;2024-01-27T03:27:28;98711.31;;;2.64;100.00
9139;BME280;4604;48.616;9.548;2024-01-27T03:29:58;98714.03;;;2.59;100.00
9139;BME280;4604;48.616;9.548;2024-01-27T03:32:25;98714.03;;;2.59;100.00
9139;BME280;4604;48.616;9.548;2024-01-27T03:34:52;98716.53;;;2.64;100.00
9139;BME280;4604;48.616;9.548;2024-01-27T03:37:21;98709.53;;;2.64;100.00
9139;BME280;4604;48.616;9.548;2024-01-27T03:39:48;98718.22;;;2.65;100.00
9139;BME280;4604;48.616;9.548;2024-01-27T03:42:14;98714.75;;;2.64;100.00
9139;BME280;4604;48.616;9.548;2024-01-27T03:44:41;98716.53;;;2.64;100.00
9139;BME280;4604;48.616;9.548;2024-01-27T03:47:07;98715.81;;;2.59;100.00
9139;BME280;4604;48.616;9.548;2024-01-27T03:49:34;98715.81;;;2.59;100.00
9139;BME280;4604;48.616;9.548;2024-01-27T03:52:02;98723.53;;;2.62;100.00
9139;BME280;4604;48.616;9.548;2024-01-27T03:54:29;98727.00;;;2.61;100.00
9139;BME280;4604;48.616;9.548;2024-01-27T03:56:55;98723.56;;;2.60;100.00
9139;BME280;4604;48.616;9.548;2024-01-27T03:59:22;98733.94;;;2.62;100.00
9139;BME280;4604;48.616;9.548;2024-01-27T04:01:48;98735.88;;;2.55;100.00
9139;BME280;4604;48.616;9.548;2024-01-27T04:04:15;98728.06;;;2.55;100.00
9139;BME280;4604;48.616;9.548;2024-01-27T04:06:41;98734.06;;;2.59;100.00
9139;BME280;4604;48.616;9.548;2024-01-27T04:09:09;98729.63;;;2.61;100.00
9139;BME280;4604;48.616;9.548;2024-01-27T04:11:36;98731.22;;;2.66;100.00
9139;BME280;4604;48.616;9.548;2024-01-27T04:14:04;98733.75;;;2.68;100.00
9139;BME280;4604;48.616;9.548;2024-01-27T04:16:31;98731.25;;;2.65;100.00
9139;BME280;4604;48.616;9.548;2024-01-27T04:18:58;98739.84;;;2.68;100.00
9139;BME280;4604;48.616;9.548;2024-01-27T04:21:24;98739.84;;;2.68;100.00
9139;BME280;4604;48.616;9.548;2024-01-27T04:23:51;98735.41;;;2.70;100.00
9139;BME280;4604;48.616;9.548;2024-01-27T04:26:19;98730.28;;;2.69;100.00
9139;BME280;4604;48.616;9.548;2024-01-27T04:28:45;98730.34;;;2.66;100.00
9139;BME280;4604;48.616;9.548;2024-01-27T04:31:12;98731.44;;;2.59;100.00
9139;BME280;4604;48.616;9.548;2024-01-27T04:33:38;98735.75;;;2.60;100.00
9139;BME280;4604;48.616;9.548;2024-01-27T04:36:05;98734.91;;;2.59;100.00
9139;BME280;4604;48.616;9.548;2024-01-27T04:38:34;98742.84;;;2.54;100.00
9139;BME280;4604;48.616;9.548;2024-01-27T04:41:01;98736.06;;;2.49;100.00
9139;BME280;4604;48.616;9.548;2024-01-27T04:43:29;98743.13;;;2.44;100.00
9139;BME280;4604;48.616;9.548;2024-01-27T04:45:55;98745.13;;;2.35;100.00
9139;BME280;4604;48.616;9.548;2024-01-27T04:48:22;98737.50;;;2.29;100.00
9139;BME280;4604;48.616;9.548;2024-01-27T04:50:48;98740.22;;;2.25;100.00
9139;BME280;4604;48.616;9.548;2024-01-27T04:53:16;98735.00;;;2.25;100.00
9139;BME280;4604;48.616;9.548;2024-01-27T04:55:42;98740.28;;;2.22;100.00
9139;BME280;4604;48.616;9.548;2024-01-27T04:58:09;98745.56;;;2.20;100.00
9139;BME280;4604;48.616;9.548;2024-01-27T05:00:37;98745.66;;;2.17;100.00
9139;BME280;4604;48.616;9.548;2024-01-27T05:03:03;98740.59;;;2.11;100.00
9139;BME280;4604;48.616;9.548;2024-01-27T05:05:32;98750.28;;;2.06;100.00
9139;BME280;4604;48.616;9.548;2024-01-27T05:07:59;98745.94;;;2.05;100.00
9139;BME280;4604;48.616;9.548;2024-01-27T05:10:25;98749.66;;;1.98;100.00
9139;BME280;4604;48.616;9.548;2024-01-27T05:12:52;98749.81;;;1.90;100.00
9139;BME280;4604;48.616;9.548;2024-01-27T05:15:18;98754.19;;;1.89;100.00
9139;BME280;4604;48.616;9.548;2024-01-27T05:17:46;98745.81;;;1.78;100.00
9139;BME280;4604;48.616;9.548;2024-01-27T05:20:13;98750.41;;;1.68;100.00
9139;BME280;4604;48.616;9.548;2024-01-27T05:22:40;98747.03;;;1.63;100.00
9139;BME280;4604;48.616;9.548;2024-01-27T05:25:07;98748.91;;;1.58;100.00
9139;BME280;4604;48.616;9.548;2024-01-27T05:27:36;98754.19;;;1.55;100.00
9139;BME280;4604;48.616;9.548;2024-01-27T05:30:04;98746.72;;;1.41;100.00
9139;BME280;4604;48.616;9.548;2024-01-27T05:32:30;98761.44;;;1.42;100.00
9139;BME280;4604;48.616;9.548;2024-01-27T05:34:58;98758.97;;;1.36;100.00
9139;BME280;4604;48.616;9.548;2024-01-27T05:37:25;98758.22;;;1.31;100.00
9139;BME280;4604;48.616;9.548;2024-01-27T05:39:51;98757.50;;;1.26;100.00
9139;BME280;4604;48.616;9.548;2024-01-27T05:42:18;98756.75;;;1.21;100.00
9139;BME280;4604;48.616;9.548;2024-01-27T05:44:44;98760.28;;;1.18;100.00
9139;BME280;4604;48.616;9.548;2024-01-27T05:47:11;98762.09;;;1.15;100.00
9139;BME280;4604;48.616;9.548;2024-01-27T05:49:37;98763.06;;;1.11;100.00
9139;BME280;4604;48.616;9.548;2024-01-27T05:52:06;98753.59;;;1.08;100.00
9139;BME280;4604;48.616;9.548;2024-01-27T05:54:32;98767.63;;;1.01;100.00
9139;BME280;4604;48.616;9.548;2024-01-27T05:56:59;98768.56;;;0.97;100.00
9139;BME280;4604;48.616;9.548;2024-01-27T05:59:26;98766.13;;;0.89;100.00
9139;BME280;4604;48.616;9.548;2024-01-27T06:01:53;98760.19;;;0.84;100.00
9139;BME280;4604;48.616;9.548;2024-01-27T06:04:19;98771.50;;;0.81;100.00
9139;BME280;4604;48.616;9.548;2024-01-27T06:06:46;98768.91;;;0.81;100.00
9139;BME280;4604;48.616;9.548;2024-01-27T06:09:14;98771.63;;;0.75;100.00
9139;BME280;4604;48.616;9.548;2024-01-27T06:11:41;98763.91;;;0.71;100.00
9139;BME280;4604;48.616;9.548;2024-01-27T06:14:07;98764.03;;;0.66;100.00
9139;BME280;4604;48.616;9.548;2024-01-27T06:16:34;98766.69;;;0.63;100.00
9139;BME280;4604;48.616;9.548;2024-01-27T06:19:01;98765.91;;;0.59;100.00
9139;BME280;4604;48.616;9.548;2024-01-27T06:21:27;98772.97;;;0.51;100.00
9139;BME280;4604;48.616;9.548;2024-01-27T06:23:54;98776.41;;;0.53;100.00
9139;BME280;4604;48.616;9.548;2024-01-27T06:26:22;98773.88;;;0.50;100.00
9139;BME280;4604;48.616;9.548;2024-01-27T06:28:48;98783.50;;;0.45;100.00
9139;BME280;4604;48.616;9.548;2024-01-27T06:31:16;98774.97;;;0.40;100.00
9139;BME280;4604;48.616;9.548;2024-01-27T06:33:42;98780.16;;;0.40;100.00
9139;BME280;4604;48.616;9.548;2024-01-27T06:36:09;98779.25;;;0.41;100.00
9139;BME280;4604;48.616;9.548;2024-01-27T06:38:37;98787.97;;;0.38;100.00
9139;BME280;4604;48.616;9.548;2024-01-27T06:41:04;98785.41;;;0.37;100.00
9139;BME280;4604;48.616;9.548;2024-01-27T06:43:32;98788.06;;;0.34;100.00
9139;BME280;4604;48.616;9.548;2024-01-27T06:45:58;98798.41;;;0.35;100.00
9139;BME280;4604;48.616;9.548;2024-01-27T06:48:25;98800.16;;;0.35;100.00
9139;BME280;4604;48.616;9.548;2024-01-27T06:50:52;98795.97;;;0.28;100.00
9139;BME280;4604;48.616;9.548;2024-01-27T06:53:19;98808.22;;;0.19;100.00
9139;BME280;4604;48.616;9.548;2024-01-27T06:55:46;98810.88;;;0.16;100.00
9139;BME280;4604;48.616;9.548;2024-01-27T06:58:12;98807.44;;;0.16;100.00
9139;BME280;4604;48.616;9.548;2024-01-27T07:00:40;98811.63;;;0.25;100.00
9139;BME280;4604;48.616;9.548;2024-01-27T07:03:07;98810.78;;;0.23;100.00
9139;BME280;4604;48.616;9.548;2024-01-27T07:05:34;98806.47;;;0.21;100.00
9139;BME280;4604;48.616;9.548;2024-01-27T07:08:05;98798.59;;;0.26;100.00
9139;BME280;4604;48.616;9.548;2024-01-27T07:10:32;98796.03;;;0.25;100.00
9139;BME280;4604;48.616;9.548;2024-01-27T07:12:59;98805.53;;;0.24;100.00
9139;BME280;4604;48.616;9.548;2024-01-27T07:15:26;98809.09;;;0.20;100.00
9139;BME280;4604;48.616;9.548;2024-01-27T07:17:54;98807.28;;;0.25;100.00
9139;BME280;4604;48.616;9.548;2024-01-27T07:20:21;98809.81;;;0.27;100.00
9139;BME280;4604;48.616;9.548;2024-01-27T07:22:48;98808.88;;;0.32;100.00
9139;BME280;4604;48.616;9.548;2024-01-27T07:25:15;98809.72;;;0.33;100.00
9139;BME280;4604;48.616;9.548;2024-01-27T07:27:42;98811.38;;;0.37;100.00
9139;BME280;4604;48.616;9.548;2024-01-27T07:30:09;98807.97;;;0.33;100.00
9139;BME280;4604;48.616;9.548;2024-01-27T07:32:36;98814.78;;;0.40;100.00
9139;BME280;4604;48.616;9.548;2024-01-27T07:35:05;98813.16;;;0.33;100.00
9139;BME280;4604;48.616;9.548;2024-01-27T07:37:32;98807.91;;;0.36;100.00
9139;BME280;4604;48.616;9.548;2024-01-27T07:39:58;98812.31;;;0.33;100.00
9139;BME280;4604;48.616;9.548;2024-01-27T07:42:25;98814.78;;;0.40;100.00
9139;BME280;4604;48.616;9.548;2024-01-27T07:44:51;98812.03;;;0.48;100.00
9139;BME280;4604;48.616;9.548;2024-01-27T07:47:18;98808.41;;;0.57;100.00
9139;BME280;4604;48.616;9.548;2024-01-27T07:49:45;98799.59;;;0.62;100.00
9139;BME280;4604;48.616;9.548;2024-01-27T07:52:13;98798.63;;;0.68;100.00
9139;BME280;4604;48.616;9.548;2024-01-27T07:54:39;98796.69;;;0.78;100.00
9139;BME280;4604;48.616;9.548;2024-01-27T07:57:06;98787.94;;;0.82;100.00
9139;BME280;4604;48.616;9.548;2024-01-27T07:59:33;98792.09;;;0.91;100.00
9139;BME280;4604;48.616;9.548;2024-01-27T08:02:00;98809.94;;;1.08;100.00
9139;BME280;4604;48.616;9.548;2024-01-27T08:04:27;98808.00;;;1.16;100.00
9139;BME280;4604;48.616;9.548;2024-01-27T08:06:53;98800.03;;;1.23;100.00
9139;BME280;4604;48.616;9.548;2024-01-27T08:09:21;98801.50;;;1.35;100.00
9139;BME280;4604;48.616;9.548;2024-01-27T08:11:48;98813.41;;;1.45;100.00
9139;BME280;4604;48.616;9.548;2024-01-27T08:14:18;98808.06;;;1.52;100.00
9139;BME280;4604;48.616;9.548;2024-01-27T08:16:45;98812.91;;;1.65;100.00
9139;BME280;4604;48.616;9.548;2024-01-27T08:19:11;98808.41;;;1.74;100.00
9139;BME280;4604;48.616;9.548;2024-01-27T08:21:38;98810.72;;;1.84;100.00
9139;BME280;4604;48.616;9.548;2024-01-27T08:24:05;98801.75;;;1.96;100.00
9139;BME280;4604;48.616;9.548;2024-01-27T08:26:33;98808.41;;;2.08;100.00
9139;BME280;4604;48.616;9.548;2024-01-27T08:29:00;98807.25;;;2.18;100.00
9139;BME280;4604;48.616;9.548;2024-01-27T08:31:26;98807.84;;;2.29;100.00
9139;BME280;4604;48.616;9.548;2024-01-27T08:33:53;98816.19;;;2.41;100.00
9139;BME280;4604;48.616;9.548;2024-01-27T08:36:19;98815.03;;;2.51;100.00
9139;BME280;4604;48.616;9.548;2024-01-27T08:38:46;98817.41;;;2.60;100.00
9139;BME280;4604;48.616;9.548;2024-01-27T08:41:12;98816.34;;;2.66;100.00
9139;BME280;4604;48.616;9.548;2024-01-27T08:43:40;98811.84;;;2.72;100.00
9139;BME280;4604;48.616;9.548;2024-01-27T08:46:07;98808.88;;;2.85;100.00
9139;BME280;4604;48.616;9.548;2024-01-27T08:48:36;98809.47;;;2.94;100.00
9139;BME280;4604;48.616;9.548;2024-01-27T08:51:03;98803.13;;;3.03;99.71
9139;BME280;4604;48.616;9.548;2024-01-27T08:53:29;98804.66;;;3.10;99.56
9139;BME280;4604;48.616;9.548;2024-01-27T08:55:56;98793.13;;;3.17;99.60
9139;BME280;4604;48.616;9.548;2024-01-27T08:58:23;98797.13;;;3.29;99.22
9139;BME280;4604;48.616;9.548;2024-01-27T09:00:50;98789.78;;;3.40;98.62
9139;BME280;4604;48.616;9.548;2024-01-27T09:03:18;98794.69;;;3.51;98.06
9139;BME280;4604;48.616;9.548;2024-01-27T09:05:45;98791.75;;;3.60;97.96
9139;BME280;4604;48.616;9.548;2024-01-27T09:08:12;98787.97;;;3.71;97.77
9139;BME280;4604;48.616;9.548;2024-01-27T09:10:38;98785.84;;;3.82;97.10
9139;BME280;4604;48.616;9.548;2024-01-27T09:13:05;98779.47;;;3.91;96.92
9139;BME280;4604;48.616;9.548;2024-01-27T09:15:31;98774.81;;;3.99;97.20
9139;BME280;4604;48.616;9.548;2024-01-27T09:17:59;98766.59;;;4.10;96.55
9139;BME280;4604;48.616;9.548;2024-01-27T09:20:26;98765.47;;;4.17;96.18
9139;BME280;4604;48.616;9.548;2024-01-27T09:22:52;98759.25;;;4.21;96.02
9139;BME280;4604;48.616;9.548;2024-01-27T09:25:19;98770.28;;;4.29;95.67
9139;BME280;4604;48.616;9.548;2024-01-27T09:27:46;98772.63;;;4.37;95.77
9139;BME280;4604;48.616;9.548;2024-01-27T09:30:13;98775.88;;;4.43;95.00
9139;BME280;4604;48.616;9.548;2024-01-27T09:32:39;98777.13;;;4.57;94.13
9139;BME280;4604;48.616;9.548;2024-01-27T09:35:07;98781.16;;;4.65;93.52
9139;BME280;4604;48.616;9.548;2024-01-27T09:37:34;98785.16;;;4.76;92.62
9139;BME280;4604;48.616;9.548;2024-01-27T09:40:01;98784.88;;;4.83;91.13
9139;BME280;4604;48.616;9.548;2024-01-27T09:42:28;98779.00;;;5.00;88.77
9139;BME280;4604;48.616;9.548;2024-01-27T09:44:56;98774.75;;;4.98;88.70
9139;BME280;4604;48.616;9.548;2024-01-27T09:47:23;98778.94;;;5.02;87.90
9139;BME280;4604;48.616;9.548;2024-01-27T09:49:50;98779.22;;;4.94;87.32
9139;BME280;4604;48.616;9.548;2024-01-27T09:52:18;98786.50;;;5.09;87.40
9139;BME280;4604;48.616;9.548;2024-01-27T09:54:45;98798.56;;;5.13;86.15
9139;BME280;4604;48.616;9.548;2024-01-27T09:57:11;98805.69;;;5.10;86.36
9139;BME280;4604;48.616;9.548;2024-01-27T09:59:40;98812.34;;;4.95;88.21
9139;BME280;4604;48.616;9.548;2024-01-27T10:02:11;98823.03;;;4.89;89.25
9139;BME280;4604;48.616;9.548;2024-01-27T10:04:38;98830.25;;;4.82;87.58
9139;BME280;4604;48.616;9.548;2024-01-27T10:07:05;98826.38;;;4.69;88.40
9139;BME280;4604;48.616;9.548;2024-01-27T10:09:33;98834.63;;;4.82;87.78
9139;BME280;4604;48.616;9.548;2024-01-27T10:12:01;98829.25;;;5.10;85.62
9139;BME280;4604;48.616;9.548;2024-01-27T10:14:37;98841.09;;;5.19;84.04
9139;BME280;4604;48.616;9.548;2024-01-27T10:17:04;98838.56;;;5.17;85.37
9139;BME280;4604;48.616;9.548;2024-01-27T10:19:31;98844.25;;;5.05;85.92
9139;BME280;4604;48.616;9.548;2024-01-27T10:22:00;98841.56;;;5.06;84.74
9139;BME280;4604;48.616;9.548;2024-01-27T10:24:28;98846.34;;;5.19;84.67
9139;BME280;4604;48.616;9.548;2024-01-27T10:27:00;98854.25;;;4.93;85.40
9139;BME280;4604;48.616;9.548;2024-01-27T10:29:26;98846.25;;;4.98;84.88
9139;BME280;4604;48.616;9.548;2024-01-27T10:31:53;98840.75;;;5.28;84.76
9139;BME280;4604;48.616;9.548;2024-01-27T10:34:20;98838.47;;;5.42;86.43
9139;BME280;4604;48.616;9.548;2024-01-27T10:36:46;98839.09;;;5.49;84.02
9139;BME280;4604;48.616;9.548;2024-01-27T10:39:15;98830.44;;;5.47;83.50
9139;BME280;4604;48.616;9.548;2024-01-27T10:41:44;98827.34;;;5.59;83.52
9139;BME280;4604;48.616;9.548;2024-01-27T10:44:14;98824.03;;;5.54;83.32
9139;BME280;4604;48.616;9.548;2024-01-27T10:46:43;98824.28;;;5.48;83.33
9139;BME280;4604;48.616;9.548;2024-01-27T10:49:12;98836.47;;;5.49;83.02
9139;BME280;4604;48.616;9.548;2024-01-27T10:51:43;98827.06;;;5.43;82.70
9139;BME280;4604;48.616;9.548;2024-01-27T10:54:14;98821.81;;;5.43;82.81
9139;BME280;4604;48.616;9.548;2024-01-27T10:56:42;98808.31;;;5.76;81.16
9139;BME280;4604;48.616;9.548;2024-01-27T10:59:13;98823.72;;;5.62;81.79
9139;BME280;4604;48.616;9.548;2024-01-27T11:01:41;98828.78;;;5.88;80.70
9139;BME280;4604;48.616;9.548;2024-01-27T11:04:08;98824.13;;;5.95;79.90
9139;BME280;4604;48.616;9.548;2024-01-27T11:06:39;98811.00;;;5.96;79.72
9139;BME280;4604;48.616;9.548;2024-01-27T11:09:08;98813.06;;;5.88;79.29
9139;BME280;4604;48.616;9.548;2024-01-27T11:11:37;98812.91;;;5.91;79.17
9139;BME280;4604;48.616;9.548;2024-01-27T11:14:05;98805.69;;;5.98;78.98
9139;BME280;4604;48.616;9.548;2024-01-27T11:16:34;98793.56;;;6.16;78.37
9139;BME280;4604;48.616;9.548;2024-01-27T11:19:01;98780.44;;;6.36;75.72
9139;BME280;4604;48.616;9.548;2024-01-27T11:21:28;98774.03;;;6.23;75.72
9139;BME280;4604;48.616;9.548;2024-01-27T11:23:54;98775.34;;;6.13;76.45
9139;BME280;4604;48.616;9.548;2024-01-27T11:26:22;98774.22;;;6.18;76.30
9139;BME280;4604;48.616;9.548;2024-01-27T11:28:51;98768.25;;;6.35;75.82
9139;BME280;4604;48.616;9.548;2024-01-27T11:31:19;98760.69;;;6.48;75.83
9139;BME280;4604;48.616;9.548;2024-01-27T11:33:50;98765.53;;;6.57;76.25
9139;BME280;4604;48.616;9.548;2024-01-27T11:36:21;98756.91;;;6.35;77.51
9139;BME280;4604;48.616;9.548;2024-01-27T11:38:49;98755.44;;;6.29;77.47
9139;BME280;4604;48.616;9.548;2024-01-27T11:41:25;98747.81;;;6.62;76.16
9139;BME280;4604;48.616;9.548;2024-01-27T11:43:52;98752.72;;;6.51;77.35
9139;BME280;4604;48.616;9.548;2024-01-27T11:46:19;98743.06;;;6.52;78.34
9139;BME280;4604;48.616;9.548;2024-01-27T11:48:48;98742.41;;;6.65;78.24
9139;BME280;4604;48.616;9.548;2024-01-27T11:51:15;98743.09;;;6.71;76.49
9139;BME280;4604;48.616;9.548;2024-01-27T11:53:43;98745.41;;;6.77;73.87
9139;BME280;4604;48.616;9.548;2024-01-27T11:56:10;98742.78;;;6.77;73.06
9139;BME280;4604;48.616;9.548;2024-01-27T11:58:37;98729.16;;;6.88;71.16
9139;BME280;4604;48.616;9.548;2024-01-27T12:01:03;98721.84;;;6.94;69.70
9139;BME280;4604;48.616;9.548;2024-01-27T12:03:30;98728.03;;;7.12;71.17
9139;BME280;4604;48.616;9.548;2024-01-27T12:05:58;98714.97;;;7.11;68.37
9139;BME280;4604;48.616;9.548;2024-01-27T12:08:24;98712.75;;;7.01;67.64
9139;BME280;4604;48.616;9.548;2024-01-27T12:10:51;98697.66;;;7.06;69.08
9139;BME280;4604;48.616;9.548;2024-01-27T12:13:18;98708.50;;;7.18;67.26
9139;BME280;4604;48.616;9.548;2024-01-27T12:15:45;98705.16;;;7.14;67.79
9139;BME280;4604;48.616;9.548;2024-01-27T12:18:13;98711.69;;;7.24;67.37
9139;BME280;4604;48.616;9.548;2024-01-27T12:20:40;98715.22;;;7.23;69.03
9139;BME280;4604;48.616;9.548;2024-01-27T12:23:08;98709.69;;;7.47;68.26
9139;BME280;4604;48.616;9.548;2024-01-27T12:25:35;98712.88;;;7.54;65.51
9139;BME280;4604;48.616;9.548;2024-01-27T12:28:02;98715.34;;;7.39;67.46
9139;BME280;4604;48.616;9.548;2024-01-27T12:30:29;98708.91;;;7.27;67.58
9139;BME280;4604;48.616;9.548;2024-01-27T12:32:58;98699.56;;;7.22;68.59
9139;BME280;4604;48.616;9.548;2024-01-27T12:35:26;98704.50;;;7.45;66.27
9139;BME280;4604;48.616;9.548;2024-01-27T12:37:54;98694.84;;;7.46;64.77
9139;BME280;4604;48.616;9.548;2024-01-27T12:40:23;98707.91;;;7.47;63.94
9139;BME280;4604;48.616;9.548;2024-01-27T12:42:49;98703.19;;;7.37;65.30
9139;BME280;4604;48.616;9.548;2024-01-27T12:45:16;98703.31;;;7.16;64.94
9139;BME280;4604;48.616;9.548;2024-01-27T12:47:43;98693.44;;;7.21;67.70
9139;BME280;4604;48.616;9.548;2024-01-27T12:50:10;98701.28;;;7.04;68.10
9139;BME280;4604;48.616;9.548;2024-01-27T12:52:38;98697.84;;;7.02;68.77
9139;BME280;4604;48.616;9.548;2024-01-27T12:55:05;98688.09;;;7.23;69.04
9139;BME280;4604;48.616;9.548;2024-01-27T12:57:33;98679.56;;;7.37;67.63
9139;BME280;4604;48.616;9.548;2024-01-27T13:00:01;98665.66;;;7.35;69.38
9139;BME280;4604;48.616;9.548;2024-01-27T13:02:29;98672.81;;;7.48;69.36
9139;BME280;4604;48.616;9.548;2024-01-27T13:04:56;98664.25;;;7.45;69.35
9139;BME280;4604;48.616;9.548;2024-01-27T13:07:23;98676.09;;;7.54;67.90
9139;BME280;4604;48.616;9.548;2024-01-27T13:09:50;98664.50;;;7.58;66.84
9139;BME280;4604;48.616;9.548;2024-01-27T13:12:16;98668.13;;;7.55;67.02
9139;BME280;4604;48.616;9.548;2024-01-27T13:14:44;98663.97;;;7.51;67.03
9139;BME280;4604;48.616;9.548;2024-01-27T13:17:12;98666.88;;;7.62;66.51
9139;BME280;4604;48.616;9.548;2024-01-27T13:19:40;98663.56;;;7.76;65.73
9139;BME280;4604;48.616;9.548;2024-01-27T13:22:07;98665.19;;;7.79;65.80
9139;BME280;4604;48.616;9.548;2024-01-27T13:24:33;98660.84;;;7.60;65.93